createdAt,value
2019-05-22T00:00:48.958Z,91.30
2019-05-22T00:03:19.632Z,91.30
2019-05-22T00:08:17.505Z,91.20
2019-05-22T00:10:48.353Z,91.20
2019-05-22T00:13:19.775Z,91.30
2019-05-22T00:15:51.881Z,91.50
2019-05-22T00:18:22.716Z,91.50
2019-05-22T00:23:21.712Z,91.50
2019-05-22T00:25:53.338Z,91.70
2019-05-22T00:28:23.841Z,91.50
2019-05-22T00:30:53.108Z,91.50
2019-05-22T00:33:22.241Z,91.70
2019-05-22T00:35:52.884Z,91.70
2019-05-22T00:38:23.718Z,91.70
2019-05-22T00:40:57.883Z,91.60
2019-05-22T00:43:34.199Z,91.70
2019-05-22T00:46:08.349Z,91.80
2019-05-22T00:48:59.294Z,91.70
2019-05-22T00:51:29.721Z,91.70
2019-05-22T00:54:16.790Z,91.70
2019-05-22T00:56:48.290Z,91.90
2019-05-22T01:02:07.710Z,92.00
2019-05-22T01:04:42.260Z,92.40
2019-05-22T01:07:18.910Z,91.90
2019-05-22T01:10:02.541Z,91.90
2019-05-22T01:12:43.804Z,91.90
2019-05-22T01:15:15.754Z,91.90
2019-05-22T01:22:47.416Z,91.80
2019-05-22T01:25:21.005Z,91.90
2019-05-22T01:27:49.766Z,92.00
2019-05-22T01:30:26.850Z,92.10
2019-05-22T01:32:57.551Z,91.90
2019-05-22T01:38:07.079Z,92.10
2019-05-22T01:40:53.010Z,92.00
2019-05-22T01:43:25.015Z,92.10
2019-05-22T01:45:53.976Z,92.40
2019-05-22T01:48:26.618Z,92.60
2019-05-22T01:50:57.547Z,92.40
2019-05-22T01:53:29.252Z,92.40
2019-05-22T01:55:59.740Z,92.40
2019-05-22T01:58:31.289Z,92.40
2019-05-22T02:01:02.717Z,92.30
2019-05-22T02:03:34.345Z,92.20
2019-05-22T02:06:09.256Z,92.30
2019-05-22T02:08:43.466Z,92.30
2019-05-22T02:11:16.611Z,92.30
2019-05-22T02:16:19.012Z,92.30
2019-05-22T02:18:49.775Z,92.40
2019-05-22T02:21:19.209Z,92.30
2019-05-22T02:23:49.729Z,93.60
2019-05-22T02:26:20.412Z,92.40
2019-05-22T02:28:51.049Z,92.50
2019-05-22T02:31:24.266Z,92.60
2019-05-22T02:36:33.470Z,92.70
2019-05-22T02:41:50.527Z,92.70
2019-05-22T02:44:19.718Z,92.60
2019-05-22T02:46:49.761Z,92.60
2019-05-22T02:49:18.623Z,92.60
2019-05-22T02:54:18.526Z,92.70
2019-05-22T02:56:47.671Z,92.70
2019-05-22T02:59:18.259Z,92.80
2019-05-22T03:04:36.830Z,92.90
2019-05-22T03:07:06.581Z,92.90
2019-05-22T03:09:37.025Z,93.00
2019-05-22T03:12:07.949Z,93.00
2019-05-22T03:17:11.740Z,93.00
2019-05-22T03:19:45.606Z,93.10
2019-05-22T03:22:27.522Z,94.50
2019-05-22T03:24:58.817Z,93.10
2019-05-22T03:27:45.458Z,93.10
2019-05-22T03:37:43.213Z,92.90
2019-05-22T03:40:14.133Z,93.30
2019-05-22T03:45:13.725Z,93.40
2019-05-22T03:47:44.054Z,93.40
2019-05-22T03:55:14.129Z,93.20
2019-05-22T04:00:17.815Z,93.60
2019-05-22T04:05:22.474Z,93.90
2019-05-22T04:12:50.481Z,93.90
2019-05-22T04:27:46.898Z,94.00
2019-05-22T04:32:44.675Z,93.80
2019-05-22T04:35:17.971Z,93.90
2019-05-22T04:40:23.484Z,93.60
2019-05-22T04:42:52.961Z,93.20
2019-05-22T05:02:52.997Z,93.70
2019-05-22T05:05:25.199Z,93.80
2019-05-22T05:10:23.737Z,94.20
2019-05-22T05:15:21.427Z,94.30
2019-05-22T05:25:20.091Z,93.70
2019-05-22T05:27:48.947Z,93.30
2019-05-22T05:40:34.966Z,94.00
2019-05-22T05:43:05.282Z,94.40
2019-05-22T05:45:37.311Z,94.10
2019-05-22T05:48:09.238Z,93.60
2019-05-22T05:56:10.526Z,93.50
2019-05-22T05:58:39.990Z,93.50
2019-05-22T06:01:22.203Z,93.60
2019-05-22T06:03:53.194Z,93.50
2019-05-22T06:06:26.055Z,93.70
2019-05-22T06:08:56.592Z,94.30
2019-05-22T06:13:55.735Z,94.10
2019-05-22T06:16:29.785Z,94.10
2019-05-22T06:18:58.902Z,93.60
2019-05-22T06:24:03.389Z,93.90
2019-05-22T06:29:04.100Z,94.00
2019-05-22T06:34:07.245Z,93.30
2019-05-22T06:36:36.818Z,94.00
2019-05-22T06:44:27.772Z,93.80
2019-05-22T06:49:33.553Z,94.40
2019-05-22T06:57:05.861Z,94.40
2019-05-22T06:59:34.726Z,94.70
2019-05-22T07:02:04.609Z,94.80
2019-05-22T07:04:34.182Z,94.90
2019-05-22T07:09:33.737Z,94.50
2019-05-22T07:12:03.122Z,94.30
2019-05-22T07:14:32.099Z,94.40
2019-05-22T07:17:03.204Z,95.50
2019-05-22T07:19:34.035Z,95.10
2019-05-22T07:22:05.455Z,95.00
2019-05-22T07:27:25.693Z,95.10
2019-05-22T07:32:24.175Z,95.30
2019-05-22T07:37:22.979Z,95.50
2019-05-22T07:39:52.297Z,95.40
2019-05-22T07:42:21.501Z,95.10
2019-05-22T07:44:50.297Z,95.00
2019-05-22T07:49:49.143Z,95.10
2019-05-22T07:52:18.225Z,95.20
2019-05-22T07:54:47.941Z,95.40
2019-05-22T07:57:20.059Z,95.50
2019-05-22T07:59:49.666Z,95.50
2019-05-22T08:02:20.204Z,95.30
2019-05-22T08:04:49.291Z,94.60
2019-05-22T08:07:19.977Z,94.40
2019-05-22T08:09:48.816Z,94.70
2019-05-22T08:12:19.157Z,96.00
2019-05-22T08:14:49.999Z,95.80
2019-05-22T08:17:20.605Z,94.40
2019-05-22T08:19:49.499Z,94.00
2019-05-22T08:22:18.671Z,94.20
2019-05-22T08:29:47.252Z,94.60
2019-05-22T08:34:47.201Z,94.80
2019-05-22T08:37:21.870Z,94.20
2019-05-22T08:39:51.819Z,94.60
2019-05-22T08:42:23.008Z,94.40
2019-05-22T08:47:20.600Z,95.30
2019-05-22T08:49:50.629Z,94.90
2019-05-22T08:52:23.378Z,94.00
2019-05-22T08:57:21.233Z,94.70
2019-05-22T08:59:50.562Z,94.80
2019-05-22T09:02:20.385Z,94.60
2019-05-22T09:04:49.502Z,94.80
2019-05-22T09:07:19.332Z,94.40
2019-05-22T09:09:48.422Z,94.40
2019-05-22T09:12:17.429Z,94.20
2019-05-22T09:14:46.977Z,94.40
2019-05-22T09:17:16.030Z,95.70
2019-05-22T09:22:14.129Z,96.80
2019-05-22T09:24:43.291Z,97.10
2019-05-22T09:27:12.615Z,96.70
2019-05-22T09:29:41.558Z,98.20
2019-05-22T09:32:10.424Z,95.50
2019-05-22T09:34:39.735Z,95.70
2019-05-22T09:37:08.849Z,95.80
2019-05-22T09:42:07.175Z,95.90
2019-05-22T09:49:33.554Z,95.00
2019-05-22T09:57:05.813Z,94.80
2019-05-22T10:07:03.080Z,92.20
2019-05-22T10:09:37.047Z,93.00
2019-05-22T10:17:04.732Z,92.10
2019-05-22T10:22:05.712Z,91.80
2019-05-22T10:24:34.899Z,91.80
2019-05-22T10:29:33.132Z,92.40
2019-05-22T10:32:02.299Z,91.70
2019-05-22T10:41:58.187Z,86.30
2019-05-22T10:44:27.167Z,84.80
2019-05-22T10:49:24.793Z,85.10
2019-05-22T10:51:53.558Z,82.80
2019-05-22T10:59:19.970Z,83.70
2019-05-22T11:01:48.858Z,81.90
2019-05-22T11:06:48.777Z,76.60
2019-05-22T11:11:48.308Z,76.00
2019-05-22T11:14:17.105Z,72.30
2019-05-22T11:19:15.733Z,74.20
2019-05-22T11:21:47.254Z,74.60
2019-05-22T11:29:14.913Z,77.30
2019-05-22T11:31:44.515Z,74.00
2019-05-22T11:34:14.139Z,76.10
2019-05-22T11:36:43.032Z,71.80
2019-05-22T11:39:14.008Z,70.30
2019-05-22T11:41:44.381Z,73.60
2019-05-22T11:49:12.087Z,74.10
2019-05-22T11:51:44.075Z,72.90
2019-05-22T11:54:13.568Z,71.00
2019-05-22T11:59:13.409Z,69.60
2019-05-22T12:04:13.975Z,68.70
2019-05-22T12:16:43.068Z,68.90
2019-05-22T12:19:12.019Z,68.00
2019-05-22T12:21:42.372Z,68.20
2019-05-22T12:24:26.054Z,67.90
2019-05-22T12:26:42.623Z,68.40
2019-05-22T12:29:11.577Z,70.40
2019-05-22T12:34:10.843Z,69.50
2019-05-22T12:41:40.813Z,65.70
2019-05-22T12:44:10.821Z,63.90
2019-05-22T12:46:40.368Z,66.40
2019-05-22T12:51:43.357Z,66.10
2019-05-22T12:54:12.262Z,65.10
2019-05-22T13:01:42.853Z,65.80
2019-05-22T13:06:42.060Z,65.30
2019-05-22T13:11:40.492Z,66.00
2019-05-22T13:16:38.295Z,63.10
2019-05-22T13:19:10.357Z,64.20
2019-05-22T13:21:43.456Z,63.60
2019-05-22T13:24:22.296Z,63.40
2019-05-22T13:26:52.338Z,64.40
2019-05-22T13:29:21.533Z,63.90
2019-05-22T13:31:52.800Z,64.30
2019-05-22T13:34:23.032Z,64.60
2019-05-22T13:36:52.634Z,64.10
2019-05-22T13:39:21.866Z,63.60
2019-05-22T13:41:50.978Z,62.20
2019-05-22T13:44:21.613Z,62.30
2019-05-22T13:46:50.593Z,62.50
2019-05-22T13:49:19.901Z,62.90
2019-05-22T13:51:49.406Z,63.50
2019-05-22T13:59:17.184Z,61.50
2019-05-22T14:01:47.014Z,61.10
2019-05-22T14:16:48.777Z,58.70
2019-05-22T14:19:14.201Z,59.60
2019-05-22T14:29:10.979Z,61.00
2019-05-22T14:31:41.010Z,60.30
2019-05-22T14:34:10.549Z,59.50
2019-05-22T14:36:39.699Z,60.00
2019-05-22T14:39:10.677Z,60.10
2019-05-22T14:41:39.744Z,59.90
2019-05-22T14:44:11.697Z,60.90
2019-05-22T14:46:40.643Z,59.50
2019-05-22T14:49:09.684Z,59.60
2019-05-22T14:51:38.781Z,61.20
2019-05-22T14:54:08.443Z,61.30
2019-05-22T14:56:37.297Z,60.60
2019-05-22T14:59:06.965Z,60.30
2019-05-22T15:01:36.035Z,60.20
2019-05-22T15:04:05.287Z,59.70
2019-05-22T15:06:34.553Z,59.10
2019-05-22T15:09:07.672Z,59.10
2019-05-22T15:11:36.712Z,59.10
2019-05-22T15:14:08.511Z,58.60
2019-05-22T15:19:06.784Z,57.00
2019-05-22T15:21:35.732Z,58.40
2019-05-22T15:24:05.766Z,57.70
2019-05-22T15:26:34.529Z,59.40
2019-05-22T15:29:04.219Z,59.80
2019-05-22T15:31:33.432Z,58.90
2019-05-22T15:34:04.099Z,58.70
2019-05-22T15:36:33.257Z,59.00
2019-05-22T15:39:03.796Z,58.90
2019-05-22T15:41:33.828Z,58.70
2019-05-22T15:44:03.004Z,60.00
2019-05-22T15:46:34.628Z,58.20
2019-05-22T15:49:05.916Z,58.20
2019-05-22T15:51:35.573Z,58.10
2019-05-22T15:54:05.712Z,59.10
2019-05-22T15:56:36.317Z,59.10
2019-05-22T15:59:08.638Z,59.20
2019-05-22T16:01:37.633Z,60.50
2019-05-22T16:04:10.080Z,60.20
2019-05-22T16:06:39.920Z,59.20
2019-05-22T16:09:13.258Z,59.50
2019-05-22T16:11:42.709Z,59.10
2019-05-22T16:14:13.079Z,59.60
2019-05-22T16:16:43.352Z,59.80
2019-05-22T16:19:13.025Z,60.40
2019-05-22T16:21:47.470Z,59.70
2019-05-22T16:24:17.280Z,59.10
2019-05-22T16:26:46.347Z,60.20
2019-05-22T16:29:15.965Z,60.30
2019-05-22T16:31:45.702Z,60.10
2019-05-22T16:34:15.696Z,61.50
2019-05-22T16:36:46.344Z,62.10
2019-05-22T16:39:16.781Z,61.30
2019-05-22T16:41:46.585Z,60.80
2019-05-22T16:44:17.543Z,60.70
2019-05-22T16:46:46.959Z,59.80
2019-05-22T16:51:46.427Z,60.80
2019-05-22T16:54:36.497Z,60.80
2019-05-22T16:59:37.115Z,59.20
2019-05-22T17:02:07.904Z,58.40
2019-05-22T17:04:37.807Z,59.00
2019-05-22T17:07:07.890Z,60.20
2019-05-22T17:09:39.545Z,60.90
2019-05-22T17:12:09.880Z,59.60
2019-05-22T17:14:38.888Z,58.40
2019-05-22T17:17:09.852Z,59.10
2019-05-22T17:19:39.147Z,59.50
2019-05-22T17:22:08.670Z,58.20
2019-05-22T17:24:38.508Z,60.30
2019-05-22T17:29:37.384Z,60.00
2019-05-22T17:32:08.590Z,59.70
2019-05-22T17:34:37.767Z,59.50
2019-05-22T17:37:10.716Z,59.40
2019-05-22T17:39:42.590Z,59.70
2019-05-22T17:42:16.917Z,59.70
2019-05-22T17:44:47.787Z,60.40
2019-05-22T17:49:46.171Z,61.30
2019-05-22T17:52:16.447Z,61.90
2019-05-22T17:54:46.309Z,61.40
2019-05-22T17:59:45.361Z,61.70
2019-05-22T18:02:15.897Z,61.20
2019-05-22T18:07:13.546Z,61.90
2019-05-22T18:09:42.561Z,61.90
2019-05-22T18:12:11.984Z,62.10
2019-05-22T18:17:10.141Z,61.30
2019-05-22T18:19:39.360Z,61.20
2019-05-22T18:22:10.079Z,61.30
2019-05-22T18:24:38.914Z,61.20
2019-05-22T18:27:07.961Z,60.40
2019-05-22T18:32:06.920Z,61.40
2019-05-22T18:34:35.750Z,62.00
2019-05-22T18:37:04.490Z,61.20
2019-05-22T18:39:34.054Z,60.00
2019-05-22T18:42:03.474Z,60.20
2019-05-22T18:44:32.324Z,61.00
2019-05-22T18:47:01.529Z,60.30
2019-05-22T18:49:30.550Z,60.40
2019-05-22T18:51:59.828Z,60.20
2019-05-22T18:54:29.010Z,60.40
2019-05-22T18:56:57.851Z,60.70
2019-05-22T19:01:55.775Z,61.60
2019-05-22T19:06:55.915Z,62.00
2019-05-22T19:09:24.478Z,63.90
2019-05-22T19:14:21.920Z,63.60
2019-05-22T19:16:50.667Z,63.20
2019-05-22T19:19:19.965Z,66.80
2019-05-22T19:21:49.207Z,81.30
2019-05-22T19:26:51.108Z,88.10
2019-05-22T19:31:48.576Z,93.30
2019-05-22T19:34:17.730Z,94.50
2019-05-22T19:36:48.145Z,95.40
2019-05-22T19:39:17.081Z,96.50
2019-05-22T19:42:01.330Z,97.10
2019-05-22T19:44:18.221Z,97.70
2019-05-22T19:46:47.115Z,98.10
2019-05-22T19:49:16.457Z,98.80
2019-05-22T19:51:46.163Z,99.50
2019-05-22T19:54:14.911Z,99.50
2019-05-22T19:56:44.227Z,99.90
2019-05-22T19:59:13.558Z,99.90
2019-05-22T20:01:42.764Z,99.90
2019-05-22T20:04:12.232Z,99.90
2019-05-22T20:09:13.731Z,99.90
2019-05-22T20:11:42.882Z,99.90
2019-05-22T20:14:12.191Z,99.90
2019-05-22T20:16:41.276Z,99.90
2019-05-22T20:24:09.365Z,99.90
2019-05-22T20:29:07.536Z,99.90
2019-05-22T20:31:37.093Z,99.90
2019-05-22T20:34:08.665Z,99.90
2019-05-22T20:36:37.923Z,99.90
2019-05-22T20:39:09.541Z,99.90
2019-05-22T20:41:38.739Z,99.90
2019-05-22T20:46:38.353Z,99.90
2019-05-22T20:49:13.306Z,99.90
2019-05-22T20:51:42.546Z,99.90
2019-05-22T20:54:13.012Z,99.90
2019-05-22T20:56:44.980Z,99.90
2019-05-22T20:59:14.261Z,99.90
2019-05-22T21:01:43.100Z,99.90
2019-05-22T21:04:14.352Z,99.90
2019-05-22T21:07:00.177Z,99.90
2019-05-22T21:11:59.086Z,99.90
2019-05-22T21:14:28.724Z,99.90
2019-05-22T21:16:57.680Z,99.90
2019-05-22T21:19:28.271Z,99.90
2019-05-22T21:21:58.222Z,99.90
2019-05-22T21:24:28.806Z,99.90
2019-05-22T21:26:57.638Z,99.90
2019-05-22T21:31:55.183Z,99.90
2019-05-22T21:34:24.960Z,99.90
2019-05-22T21:39:23.791Z,99.90
2019-05-22T21:41:52.824Z,99.90
2019-05-22T21:44:21.732Z,99.90
2019-05-22T21:46:50.606Z,99.90
2019-05-22T21:51:48.587Z,99.90
2019-05-22T21:59:18.033Z,99.90
2019-05-22T22:04:21.299Z,99.90
2019-05-22T22:09:20.374Z,99.90
2019-05-22T22:11:50.046Z,99.90
2019-05-22T22:16:49.890Z,99.90
2019-05-22T22:19:20.110Z,99.90
2019-05-22T22:21:50.040Z,99.90
2019-05-22T22:26:49.015Z,99.90
2019-05-22T22:41:50.093Z,99.90
2019-05-22T22:44:18.949Z,99.90
2019-05-22T22:46:59.904Z,99.90
2019-05-22T22:49:29.539Z,99.90
2019-05-22T22:59:27.077Z,99.90
2019-05-22T23:01:57.500Z,99.90
2019-05-22T23:06:59.161Z,99.90
2019-05-22T23:27:02.537Z,99.90
2019-05-22T23:32:04.118Z,99.90
2019-05-22T23:34:33.842Z,99.90
2019-05-22T23:37:03.917Z,99.90
2019-05-22T23:39:34.499Z,99.90
2019-05-22T23:42:08.315Z,99.90
2019-05-22T23:44:40.050Z,99.90
2019-05-22T23:47:09.382Z,99.90
2019-05-22T23:49:39.591Z,99.90
2019-05-22T23:57:08.455Z,99.90
